Cape Texel — V7RC4 — position and weather

sailwx.info

Track history (hours):
 
Tides and Currents Weather Stations Pressure Air Temp Water Temp Dewpoint Dewpoint Depression Visibility Wind Speed Wind Dir Waves Ship Positions

Cape Texel

Last reported at 2017-Apr-12 17:21 UTC. Time now 2017-Apr-24 23:11 UTC.
Position N 36°12' E 015°01'.
Warning: this ship's position is 12 days out of date.

Length 228 m; draft 14.6 m.

Type: Ship (hazmat cat A). MMSI: 538090383.

Date/timePositionNaut miles runAvg speedWind from/ knotsBaromVisibWave heightAir tempDewpointWater temp
2017-Apr-12 17:21N 36°12' E 015°01'511.8
2017-Apr-12 16:57N 36°14' E 014°56'511.7
2017-Apr-12 16:31N 36°15' E 014°49'611.9
2017-Apr-12 16:00N 36°17' E 014°42'612.0
2017-Apr-12 15:30N 36°19' E 014°35'611.9
2017-Apr-12 15:00N 36°21' E 014°28'1211.8
2017-Apr-12 14:01N 36°25' E 014°15'611.9
2017-Apr-12 13:30N 36°27' E 014°08'612.1
2017-Apr-12 13:00N 36°29' E 014°00'612.1
2017-Apr-12 12:30N 36°31' E 013°54'612.1
2017-Apr-12 12:00N 36°33' E 013°46'612.1
2017-Apr-12 11:30N 36°35' E 013°39'611.8
2017-Apr-12 11:00N 36°37' E 013°32'611.7
2017-Apr-12 10:31N 36°39' E 013°26'611.8
2017-Apr-12 10:00N 36°42' E 013°19'611.9
2017-Apr-12 09:30N 36°44' E 013°12'611.9
2017-Apr-12 08:59N 36°46' E 013°05'612.2
2017-Apr-12 08:30N 36°48' E 012°58'612.6
2017-Apr-12 08:01N 36°50' E 012°51'612.7
2017-Apr-12 07:30N 36°53' E 012°43'612.5
2017-Apr-12 07:01N 36°55' E 012°36'612.4
2017-Apr-12 06:31N 36°57' E 012°29'38311.6
2017-Apr-10 21:22N 37°21' E 004°29'2011.9
2017-Apr-10 19:43N 37°18' E 004°04'211.6
2017-Apr-10 19:30N 37°18' E 004°01'611.6
2017-Apr-10 19:00N 37°17' E 003°54'611.8
2017-Apr-10 18:31N 37°16' E 003°47'911.8
2017-Apr-10 17:45N 37°14' E 003°36'411.8
2017-Apr-10 17:25N 37°14' E 003°31'41011.2
2017-Apr-09 04:52N 36°04' W 004°53'511.9
2017-Apr-09 04:27N 36°03' W 004°59'612.1
2017-Apr-09 03:59N 36°03' W 005°06'611.8
2017-Apr-09 03:31N 36°03' W 005°13'611.3
2017-Apr-09 03:01N 36°05' W 005°20'3 5.8
2017-Apr-09 02:31N 36°07' W 005°22'0 0.8
2017-Apr-09 01:59N 36°07' W 005°22'0 0.2
2017-Apr-09 01:29N 36°07' W 005°23'0 0.2
2017-Apr-09 00:59N 36°08' W 005°23'0 0.2
2017-Apr-09 00:29N 36°08' W 005°23'0 0.0
2017-Apr-08 23:59N 36°08' W 005°23'0 0.1
2017-Apr-08 23:26N 36°08' W 005°23'0 0.0
2017-Apr-08 22:59N 36°08' W 005°23'0 0.1
2017-Apr-08 22:29N 36°08' W 005°22'0 0.2
2017-Apr-08 21:59N 36°08' W 005°23'0 0.0
2017-Apr-08 21:29N 36°08' W 005°23'0 0.0
2017-Apr-08 20:59N 36°08' W 005°23'0 0.0
2017-Apr-08 20:29N 36°08' W 005°23'0 0.0
2017-Apr-08 19:59N 36°08' W 005°23'0 0.1
2017-Apr-08 19:29N 36°08' W 005°23'0 0.1
2017-Apr-08 18:59N 36°08' W 005°22'0 0.0
2017-Apr-08 18:29N 36°08' W 005°22'0 0.1
2017-Apr-08 17:59N 36°08' W 005°23'0 0.1
2017-Apr-08 17:29N 36°08' W 005°22'0 0.1
2017-Apr-08 16:59N 36°08' W 005°23'0 0.4
2017-Apr-08 16:29N 36°07' W 005°23'0 0.4
2017-Apr-08 16:01N 36°07' W 005°22'2 4.6
2017-Apr-08 15:30N 36°05' W 005°21'1 1.8
2017-Apr-08 15:01N 36°05' W 005°20'5 4.6
2017-Apr-08 14:00N 36°03' W 005°15'510.6
2017-Apr-08 13:30N 36°02' W 005°22'510.0
2017-Apr-08 13:01N 35°59' W 005°26'510.6
2017-Apr-08 12:30N 35°57' W 005°32'5 9.5
2017-Apr-08 12:00N 35°55' W 005°38'4 8.3
2017-Apr-08 11:30N 35°55' W 005°43'4 7.6
2017-Apr-08 11:00N 35°54' W 005°47'163 9.3
2017-Apr-07 17:25N 35°59' W 009°08'57711.1
2017-Apr-05 13:33N 35°35' W 020°59'011.2
2017-Apr-05 13:31N 35°35' W 020°60'611.0
2017-Apr-05 13:00N 35°35' W 021°06'611.1
2017-Apr-05 12:30N 35°34' W 021°13'611.0
2017-Apr-05 11:59N 35°34' W 021°20'611.3
2017-Apr-05 11:27N 35°33' W 021°28'511.4
2017-Apr-05 11:00N 35°32' W 021°34'611.3
2017-Apr-05 10:30N 35°32' W 021°41'611.4
2017-Apr-05 10:00N 35°31' W 021°48'611.2
2017-Apr-05 09:30N 35°31' W 021°54'2311.3
2017-Apr-05 07:26N 35°28' W 022°23'511.4
2017-Apr-05 06:57N 35°28' W 022°30'611.4
2017-Apr-05 06:26N 35°27' W 022°37'511.2
2017-Apr-05 06:00N 35°26' W 022°43'611.1
2017-Apr-05 05:30N 35°26' W 022°50'611.4
2017-Apr-05 05:00N 35°25' W 022°56'611.4
2017-Apr-05 04:30N 35°24' W 023°03'611.2
2017-Apr-05 04:00N 35°24' W 023°10'611.3
2017-Apr-05 03:30N 35°23' W 023°17'611.3
2017-Apr-05 03:00N 35°22' W 023°24'611.4
2017-Apr-05 02:30N 35°21' W 023°31'611.5
2017-Apr-05 02:01N 35°21' W 023°38'611.4
2017-Apr-05 01:30N 35°20' W 023°45'611.3
2017-Apr-05 01:00N 35°19' W 023°52'611.4
2017-Apr-05 00:31N 35°18' W 023°59'611.0
2017-Apr-05 00:00N 35°18' W 024°05'510.8
2017-Apr-04 23:30N 35°17' W 024°12'510.9
2017-Apr-04 23:01N 35°16' W 024°18'611.0
2017-Apr-04 22:30N 35°15' W 024°25'611.1
2017-Apr-04 22:00N 35°15' W 024°32'611.3
2017-Apr-04 21:30N 35°14' W 024°39'611.1
2017-Apr-04 21:00N 35°13' W 024°45'511.0
2017-Apr-04 20:31N 35°12' W 024°52'611.2
2017-Apr-04 20:00N 35°12' W 024°59'611.1
2017-Apr-04 19:30N 35°11' W 025°06'611.1
2017-Apr-04 19:01N 35°10' W 025°12'611.2
2017-Apr-04 18:27N 35°09' W 025°20'510.9
2017-Apr-04 18:00N 35°09' W 025°26'611.1
2017-Apr-04 17:26N 35°08' W 025°34'511.3
2017-Apr-04 16:59N 35°07' W 025°40'3711.3
2017-Apr-04 13:43N 35°01' W 026°24'3611.3
2017-Apr-04 10:34N 34°55' W 027°07'111.2
2017-Apr-04 10:26N 34°55' W 027°09'611.4
2017-Apr-04 09:54N 34°54' W 027°16'  
Track history (hours):
 
Tides and Currents Weather Stations Pressure Air Temp Water Temp Dewpoint Dewpoint Depression Visibility Wind Speed Wind Dir Waves Ship Positions

Cape Texel

Last reported at 2017-Apr-12 17:21 UTC. Time now 2017-Apr-24 23:11 UTC.
Position N 36°12' E 015°01'.
Warning: this ship's position is 12 days out of date.

Length 228 m; draft 14.6 m.

Type: Ship (hazmat cat A). MMSI: 538090383.

Date/timePositionNaut miles runAvg speedWind from/ knotsBaromVisibWave heightAir tempDewpointWater temp
2017-Apr-12 17:21N 36°12' E 015°01'511.8
2017-Apr-12 16:57N 36°14' E 014°56'511.7
2017-Apr-12 16:31N 36°15' E 014°49'611.9
2017-Apr-12 16:00N 36°17' E 014°42'612.0
2017-Apr-12 15:30N 36°19' E 014°35'611.9
2017-Apr-12 15:00N 36°21' E 014°28'1211.8
2017-Apr-12 14:01N 36°25' E 014°15'611.9
2017-Apr-12 13:30N 36°27' E 014°08'612.1
2017-Apr-12 13:00N 36°29' E 014°00'612.1
2017-Apr-12 12:30N 36°31' E 013°54'612.1
2017-Apr-12 12:00N 36°33' E 013°46'612.1
2017-Apr-12 11:30N 36°35' E 013°39'611.8
2017-Apr-12 11:00N 36°37' E 013°32'611.7
2017-Apr-12 10:31N 36°39' E 013°26'611.8
2017-Apr-12 10:00N 36°42' E 013°19'611.9
2017-Apr-12 09:30N 36°44' E 013°12'611.9
2017-Apr-12 08:59N 36°46' E 013°05'612.2
2017-Apr-12 08:30N 36°48' E 012°58'612.6
2017-Apr-12 08:01N 36°50' E 012°51'612.7
2017-Apr-12 07:30N 36°53' E 012°43'612.5
2017-Apr-12 07:01N 36°55' E 012°36'612.4
2017-Apr-12 06:31N 36°57' E 012°29'38311.6
2017-Apr-10 21:22N 37°21' E 004°29'2011.9
2017-Apr-10 19:43N 37°18' E 004°04'211.6
2017-Apr-10 19:30N 37°18' E 004°01'611.6
2017-Apr-10 19:00N 37°17' E 003°54'611.8
2017-Apr-10 18:31N 37°16' E 003°47'911.8
2017-Apr-10 17:45N 37°14' E 003°36'411.8
2017-Apr-10 17:25N 37°14' E 003°31'41011.2
2017-Apr-09 04:52N 36°04' W 004°53'511.9
2017-Apr-09 04:27N 36°03' W 004°59'612.1
2017-Apr-09 03:59N 36°03' W 005°06'611.8
2017-Apr-09 03:31N 36°03' W 005°13'611.3
2017-Apr-09 03:01N 36°05' W 005°20'3 5.8
2017-Apr-09 02:31N 36°07' W 005°22'0 0.8
2017-Apr-09 01:59N 36°07' W 005°22'0 0.2
2017-Apr-09 01:29N 36°07' W 005°23'0 0.2
2017-Apr-09 00:59N 36°08' W 005°23'0 0.2
2017-Apr-09 00:29N 36°08' W 005°23'0 0.0
2017-Apr-08 23:59N 36°08' W 005°23'0 0.1
2017-Apr-08 23:26N 36°08' W 005°23'0 0.0
2017-Apr-08 22:59N 36°08' W 005°23'0 0.1
2017-Apr-08 22:29N 36°08' W 005°22'0 0.2
2017-Apr-08 21:59N 36°08' W 005°23'0 0.0
2017-Apr-08 21:29N 36°08' W 005°23'0 0.0
2017-Apr-08 20:59N 36°08' W 005°23'0 0.0
2017-Apr-08 20:29N 36°08' W 005°23'0 0.0
2017-Apr-08 19:59N 36°08' W 005°23'0 0.1
2017-Apr-08 19:29N 36°08' W 005°23'0 0.1
2017-Apr-08 18:59N 36°08' W 005°22'0 0.0
2017-Apr-08 18:29N 36°08' W 005°22'0 0.1
2017-Apr-08 17:59N 36°08' W 005°23'0 0.1
2017-Apr-08 17:29N 36°08' W 005°22'0 0.1
2017-Apr-08 16:59N 36°08' W 005°23'0 0.4
2017-Apr-08 16:29N 36°07' W 005°23'0 0.4
2017-Apr-08 16:01N 36°07' W 005°22'2 4.6
2017-Apr-08 15:30N 36°05' W 005°21'1 1.8
2017-Apr-08 15:01N 36°05' W 005°20'5 4.6
2017-Apr-08 14:00N 36°03' W 005°15'510.6
2017-Apr-08 13:30N 36°02' W 005°22'510.0
2017-Apr-08 13:01N 35°59' W 005°26'510.6
2017-Apr-08 12:30N 35°57' W 005°32'5 9.5
2017-Apr-08 12:00N 35°55' W 005°38'4 8.3
2017-Apr-08 11:30N 35°55' W 005°43'4 7.6
2017-Apr-08 11:00N 35°54' W 005°47'163 9.3
2017-Apr-07 17:25N 35°59' W 009°08'57711.1
2017-Apr-05 13:33N 35°35' W 020°59'011.2
2017-Apr-05 13:31N 35°35' W 020°60'611.0
2017-Apr-05 13:00N 35°35' W 021°06'611.1
2017-Apr-05 12:30N 35°34' W 021°13'611.0
2017-Apr-05 11:59N 35°34' W 021°20'611.3
2017-Apr-05 11:27N 35°33' W 021°28'511.4
2017-Apr-05 11:00N 35°32' W 021°34'611.3
2017-Apr-05 10:30N 35°32' W 021°41'611.4
2017-Apr-05 10:00N 35°31' W 021°48'611.2
2017-Apr-05 09:30N 35°31' W 021°54'2311.3
2017-Apr-05 07:26N 35°28' W 022°23'511.4
2017-Apr-05 06:57N 35°28' W 022°30'611.4
2017-Apr-05 06:26N 35°27' W 022°37'511.2
2017-Apr-05 06:00N 35°26' W 022°43'611.1
2017-Apr-05 05:30N 35°26' W 022°50'611.4
2017-Apr-05 05:00N 35°25' W 022°56'611.4
2017-Apr-05 04:30N 35°24' W 023°03'611.2
2017-Apr-05 04:00N 35°24' W 023°10'611.3
2017-Apr-05 03:30N 35°23' W 023°17'611.3
2017-Apr-05 03:00N 35°22' W 023°24'611.4
2017-Apr-05 02:30N 35°21' W 023°31'611.5
2017-Apr-05 02:01N 35°21' W 023°38'611.4
2017-Apr-05 01:30N 35°20' W 023°45'611.3
2017-Apr-05 01:00N 35°19' W 023°52'611.4
2017-Apr-05 00:31N 35°18' W 023°59'611.0
2017-Apr-05 00:00N 35°18' W 024°05'510.8
2017-Apr-04 23:30N 35°17' W 024°12'510.9
2017-Apr-04 23:01N 35°16' W 024°18'611.0
2017-Apr-04 22:30N 35°15' W 024°25'611.1
2017-Apr-04 22:00N 35°15' W 024°32'611.3
2017-Apr-04 21:30N 35°14' W 024°39'611.1
2017-Apr-04 21:00N 35°13' W 024°45'511.0
2017-Apr-04 20:31N 35°12' W 024°52'611.2
2017-Apr-04 20:00N 35°12' W 024°59'611.1
2017-Apr-04 19:30N 35°11' W 025°06'611.1
2017-Apr-04 19:01N 35°10' W 025°12'611.2
2017-Apr-04 18:27N 35°09' W 025°20'510.9
2017-Apr-04 18:00N 35°09' W 025°26'611.1
2017-Apr-04 17:26N 35°08' W 025°34'511.3
2017-Apr-04 16:59N 35°07' W 025°40'3711.3
2017-Apr-04 13:43N 35°01' W 026°24'3611.3
2017-Apr-04 10:34N 34°55' W 027°07'111.2
2017-Apr-04 10:26N 34°55' W 027°09'611.4
2017-Apr-04 09:54N 34°54' W 027°16'  

Dump ship's entire track history